Declo, Idaho
Current Conditions -  °F | °C
As of 4:53 PM on Friday 24 Oct 2014 (Local Time) from KBYI Reporting Station
Clear Clear  
Wind Chill: 74°   Ceiling: Unl
Heat Index: 74°   Visibility: 10mi
Dew Point: 34°   Wind: 7mph
Humidity: 23%   Direction: 10°N
Pressure: 30.02"   Gusts: NA
Location:  42.52°N, 113.63°W
Report Text: KBYI 242253Z AUTO 01006KT 10SM CLR 23/01 A3002 RMK AO2 SLP136 T02330011
Loading
Personal Weather Stations






























Interactive Weather Map
Tropical Storm Tracking
New forecast layout! Learn more

10-Day Weather Forecast

Advertisements
Track Severe Weather on mobile